Time;durP1;ratioP1;P1;durP2;ratioP2;P2;SDS_P1;SDS_P2;PMS_P1;PMS_P2;Temp;Humidity;BMP_temperature;BMP_pressure;BME280_temperature;BME280_humidity;BME280_pressure;Samples;Min_cycle;Max_cycle;Signal;HPM_P1;HPM_P2
2023/03/28 00:00:28;;;;;;;0.20;0.20;;;;;;;4.86;89.54;101177.00;5011316;28;20120;-48
2023/03/28 00:02:54;;;;;;;0.30;0.30;;;;;;;4.93;89.04;101186.16;5008610;28;20109;-46
2023/03/28 00:05:20;;;;;;;0.40;0.40;;;;;;;4.82;89.30;101184.78;5012295;28;20048;-50
2023/03/28 00:07:46;;;;;;;0.20;0.20;;;;;;;4.70;89.53;101191.78;5011861;28;20034;-47
2023/03/28 00:10:12;;;;;;;0.20;0.20;;;;;;;4.74;88.77;101196.22;5003645;28;20042;-45
2023/03/28 00:12:38;;;;;;;0.25;0.25;;;;;;;4.69;89.12;101206.19;5010354;28;20146;-49
2023/03/28 00:15:04;;;;;;;0.20;0.20;;;;;;;4.52;90.13;101220.16;5012495;28;20033;-44
2023/03/28 00:17:30;;;;;;;0.20;0.20;;;;;;;4.67;89.41;101221.69;5012066;28;20092;-45
2023/03/28 00:19:56;;;;;;;0.45;0.30;;;;;;;4.55;89.35;101216.88;5006159;28;20481;-47
2023/03/28 00:22:22;;;;;;;0.20;0.20;;;;;;;4.51;88.92;101223.91;5012482;28;20452;-46
2023/03/28 00:24:47;;;;;;;0.30;0.30;;;;;;;4.52;89.43;101228.97;5012013;28;20061;-47
2023/03/28 00:27:16;;;;;;;0.20;0.20;;;;;;;4.42;89.16;101228.38;5009285;28;20381;-53
2023/03/28 00:29:42;;;;;;;0.20;0.20;;;;;;;4.37;89.46;101231.16;5010744;28;20104;-46
2023/03/28 00:32:08;;;;;;;0.30;0.30;;;;;;;4.32;89.20;101231.25;5005565;28;20033;-50
2023/03/28 00:34:34;;;;;;;0.30;0.30;;;;;;;4.19;89.67;101234.72;5008382;28;20041;-45
2023/03/28 00:37:01;;;;;;;0.20;0.20;;;;;;;4.23;89.38;101241.84;5007077;28;20037;-48
2023/03/28 00:39:28;;;;;;;0.30;0.30;;;;;;;4.13;89.93;101241.25;5012373;28;20030;-45
2023/03/28 00:41:55;;;;;;;0.40;0.40;;;;;;;4.26;89.20;101246.56;5011758;28;20026;-49
2023/03/28 00:44:52;;;;;;;0.20;0.20;;;;;;;4.34;89.24;101250.41;5012364;28;20030;-45
2023/03/28 00:47:27;;;;;;;0.20;0.20;;;;;;;4.36;88.90;101249.03;5008844;28;20477;-51
2023/03/28 00:50:02;;;;;;;0.20;0.20;;;;;;;4.23;89.16;101249.03;5011230;28;20034;-47
2023/03/28 00:52:31;;;;;;;0.20;0.20;;;;;;;4.19;89.06;101256.03;5012720;28;20056;-46
2023/03/28 00:54:58;;;;;;;0.30;0.30;;;;;;;4.32;88.31;101271.22;4999999;28;20033;-48
2023/03/28 00:57:26;;;;;;;0.30;0.30;;;;;;;4.41;87.48;101266.81;4994839;28;20513;-45
2023/03/28 00:59:53;;;;;;;0.20;0.20;;;;;;;4.22;87.05;101264.22;5010701;28;20117;-54
2023/03/28 01:02:19;;;;;;;0.25;0.25;;;;;;;4.25;87.75;101266.31;5012728;28;20022;-55
2023/03/28 01:04:56;;;;;;;0.20;0.20;;;;;;;4.12;88.01;101266.31;5004624;28;20030;-54
2023/03/28 01:07:24;;;;;;;0.20;0.20;;;;;;;4.34;86.95;101272.53;5023928;28;20030;-48
2023/03/28 01:09:50;;;;;;;0.20;0.20;;;;;;;4.44;86.20;101268.84;5011553;28;20026;-46
2023/03/28 01:12:17;;;;;;;0.50;0.50;;;;;;;4.33;86.57;101273.63;5009577;28;20099;-45
2023/03/28 01:14:44;;;;;;;0.20;0.20;;;;;;;4.46;86.14;101290.69;5003101;28;20525;-46
2023/03/28 01:17:09;;;;;;;0.20;0.20;;;;;;;4.42;86.02;101292.34;5005803;28;20026;-48
2023/03/28 01:19:41;;;;;;;0.20;0.20;;;;;;;4.48;85.33;101297.31;5026480;28;20064;-53
2023/03/28 01:22:26;;;;;;;0.60;0.60;;;;;;;4.36;85.05;101296.22;5010742;28;20042;-45
2023/03/28 01:25:18;;;;;;;0.20;0.20;;;;;;;4.35;84.98;101298.09;4996521;28;20033;-46
2023/03/28 01:28:00;;;;;;;0.20;0.20;;;;;;;4.34;85.34;101309.03;5026382;28;20037;-53
2023/03/28 01:31:08;;;;;;;0.40;0.40;;;;;;;4.32;85.13;101313.88;5022143;28;20065;-48
2023/03/28 01:34:05;;;;;;;0.28;0.28;;;;;;;4.27;84.69;101306.00;5004221;28;20034;-52
2023/03/28 01:36:55;;;;;;;0.20;0.20;;;;;;;4.03;85.64;101316.81;4987939;28;20409;-51
2023/03/28 01:39:28;;;;;;;0.57;0.47;;;;;;;4.07;85.69;101325.03;5002842;28;20034;-52
2023/03/28 01:42:12;;;;;;;14.27;0.45;;;;;;;4.12;85.51;101320.38;5003946;28;20030;-55
2023/03/28 01:45:36;;;;;;;0.20;0.20;;;;;;;3.97;85.51;101322.56;5006913;28;20037;-51
2023/03/28 01:48:25;;;;;;;0.20;0.20;;;;;;;4.07;85.50;101317.03;4958475;28;20133;-50
2023/03/28 01:50:57;;;;;;;0.20;0.20;;;;;;;3.91;85.72;101332.50;4989050;28;20544;-50
2023/03/28 01:53:47;;;;;;;0.20;0.20;;;;;;;4.00;85.36;101329.94;5010850;28;20037;-50
2023/03/28 01:56:29;;;;;;;0.30;0.30;;;;;;;3.90;85.49;101332.78;5010410;28;20052;-49
2023/03/28 01:59:12;;;;;;;0.20;0.20;;;;;;;3.98;84.99;101335.59;5024756;28;20037;-48
2023/03/28 02:02:37;;;;;;;0.32;0.32;;;;;;;3.81;85.45;101342.53;4980123;28;20496;-52
2023/03/28 02:05:22;;;;;;;0.20;0.20;;;;;;;3.61;85.67;101349.00;5004008;28;20133;-54
2023/03/28 02:07:50;;;;;;;0.20;0.20;;;;;;;3.74;85.63;101342.13;5001822;28;20054;-47
2023/03/28 02:10:20;;;;;;;0.52;0.52;;;;;;;3.82;85.79;101346.78;5007461;28;20034;-48
2023/03/28 02:13:04;;;;;;;0.30;0.30;;;;;;;3.81;85.20;101343.34;5017694;28;20497;-49
2023/03/28 02:15:47;;;;;;;0.63;0.45;;;;;;;3.89;84.88;101342.66;4989929;28;20026;-48
2023/03/28 02:18:46;;;;;;;0.20;0.20;;;;;;;3.81;84.91;101345.22;4983204;28;20374;-51
2023/03/28 02:21:35;;;;;;;0.25;0.25;;;;;;;3.87;84.44;101346.69;5007491;28;20034;-44
2023/03/28 02:24:12;;;;;;;0.30;0.30;;;;;;;3.91;83.88;101356.47;5007054;28;20041;-48
2023/03/28 02:26:53;;;;;;;0.20;0.20;;;;;;;3.87;84.03;101350.13;4991368;28;20130;-53
2023/03/28 02:30:00;;;;;;;0.20;0.20;;;;;;;3.88;83.74;101345.59;5004181;28;20121;-49
2023/03/28 02:32:36;;;;;;;0.20;0.20;;;;;;;3.77;84.09;101354.84;4959316;28;20046;-53
2023/03/28 02:35:04;;;;;;;0.30;0.30;;;;;;;3.73;83.64;101359.97;4969352;28;20074;-54
2023/03/28 02:37:37;;;;;;;0.40;0.40;;;;;;;3.73;83.51;101354.66;4954741;28;20042;-49
2023/03/28 02:40:06;;;;;;;0.45;0.32;;;;;;;3.70;83.65;101359.78;4952369;28;20034;-52
2023/03/28 02:43:05;;;;;;;0.20;0.20;;;;;;;3.70;83.70;101357.88;4957398;28;20030;-50
2023/03/28 02:45:39;;;;;;;0.20;0.20;;;;;;;3.68;83.31;101363.50;4984875;28;20038;-54
2023/03/28 02:48:32;;;;;;;0.20;0.20;;;;;;;3.59;83.83;101367.91;4951097;28;20031;-53
2023/03/28 02:51:05;;;;;;;0.75;0.30;;;;;;;3.62;83.57;101364.66;4937879;28;20405;-44
2023/03/28 02:53:55;;;;;;;0.20;0.20;;;;;;;3.58;83.71;101363.66;4951037;28;20660;-44
2023/03/28 02:56:38;;;;;;;0.30;0.22;;;;;;;3.60;83.73;101376.72;4965420;28;20055;-55
2023/03/28 02:59:25;;;;;;;1.88;0.40;;;;;;;3.63;83.61;101376.13;4949273;28;20046;-50
2023/03/28 03:01:50;;;;;;;0.20;0.20;;;;;;;3.63;83.34;101376.91;4964730;28;20034;-47
2023/03/28 03:04:16;;;;;;;0.30;0.30;;;;;;;3.61;83.61;101380.94;4958369;28;20469;-47
2023/03/28 03:06:44;;;;;;;0.28;0.28;;;;;;;3.59;83.38;101378.56;4951899;28;20484;-49
2023/03/28 03:09:11;;;;;;;0.40;0.40;;;;;;;3.58;83.37;101389.53;4975041;28;20049;-44
2023/03/28 03:11:37;;;;;;;0.30;0.30;;;;;;;3.57;83.29;101378.06;5008927;28;20085;-44
2023/03/28 03:14:03;;;;;;;0.30;0.30;;;;;;;3.55;83.11;101390.88;5001411;28;20693;-47
2023/03/28 03:16:29;;;;;;;0.30;0.30;;;;;;;3.56;83.17;101389.78;5004693;28;20034;-45
2023/03/28 03:18:56;;;;;;;0.30;0.30;;;;;;;3.56;83.08;101389.78;5003033;28;20096;-48
2023/03/28 03:21:24;;;;;;;0.40;0.40;;;;;;;3.51;82.97;101389.88;5006049;28;20033;-53
2023/03/28 03:23:52;;;;;;;0.30;0.30;;;;;;;3.54;83.00;101396.50;5006747;28;20033;-44
2023/03/28 03:26:18;;;;;;;0.30;0.30;;;;;;;3.56;82.85;101395.09;5006245;28;20037;-55
2023/03/28 03:29:01;;;;;;;0.20;0.20;;;;;;;3.52;82.85;101402.09;5018474;28;20033;-45
2023/03/28 03:31:30;;;;;;;0.20;0.20;;;;;;;3.54;83.03;101399.16;5005950;28;20096;-46
2023/03/28 03:34:25;;;;;;;0.20;0.20;;;;;;;3.48;82.98;101409.06;4993658;28;20113;-46
2023/03/28 03:36:54;;;;;;;0.30;0.30;;;;;;;3.51;82.95;101405.84;5009814;28;20100;-56
2023/03/28 03:39:21;;;;;;;0.22;0.22;;;;;;;3.47;82.79;101404.84;5006350;28;20029;-48
2023/03/28 03:41:47;;;;;;;0.20;0.20;;;;;;;3.47;82.61;101404.84;5006615;28;20037;-54
2023/03/28 03:44:12;;;;;;;0.40;0.40;;;;;;;3.37;83.01;101410.28;4992878;28;20400;-56
2023/03/28 03:46:38;;;;;;;0.30;0.30;;;;;;;3.41;83.11;101413.16;5008311;28;20058;-45
2023/03/28 03:49:03;;;;;;;0.43;0.43;;;;;;;3.42;82.68;101412.91;4992191;28;20404;-46
2023/03/28 03:51:29;;;;;;;0.40;0.40;;;;;;;3.37;82.65;101418.28;5007675;28;20026;-48
2023/03/28 03:53:59;;;;;;;0.35;0.35;;;;;;;3.37;82.45;101418.28;5009153;28;20076;-47
2023/03/28 03:56:36;;;;;;;0.40;0.40;;;;;;;3.35;82.70;101424.97;5003174;28;20070;-48
2023/03/28 03:59:01;;;;;;;0.20;0.20;;;;;;;3.33;82.60;101421.81;5011800;28;20042;-52
2023/03/28 04:01:30;;;;;;;0.20;0.20;;;;;;;3.36;82.59;101422.03;4998614;28;20493;-60
2023/03/28 04:04:01;;;;;;;0.65;0.52;;;;;;;3.34;82.69;101426.84;5005074;28;20034;-52
2023/03/28 04:06:39;;;;;;;1.75;0.60;;;;;;;3.33;82.58;101421.81;5011087;28;20034;-45
2023/03/28 04:09:07;;;;;;;0.20;0.20;;;;;;;3.30;82.57;101425.84;5011361;28;20497;-46
2023/03/28 04:11:50;;;;;;;0.20;0.20;;;;;;;3.23;82.85;101417.41;5018413;28;20049;-49
2023/03/28 04:14:15;;;;;;;0.20;0.20;;;;;;;3.26;82.76;101414.19;5006671;28;20029;-45
2023/03/28 04:16:41;;;;;;;0.90;0.30;;;;;;;3.24;82.96;101418.19;5027970;28;20034;-50
2023/03/28 04:19:07;;;;;;;0.25;0.25;;;;;;;3.25;82.76;101415.25;5011954;28;20056;-49
2023/03/28 04:21:34;;;;;;;0.40;0.40;;;;;;;3.24;82.80;101416.34;5003260;28;20029;-50
2023/03/28 04:24:02;;;;;;;0.22;0.22;;;;;;;3.26;82.68;101419.50;5011937;28;20036;-49
2023/03/28 04:26:39;;;;;;;0.32;0.32;;;;;;;3.26;82.50;101413.38;5021255;28;20482;-48
2023/03/28 04:29:09;;;;;;;0.30;0.30;;;;;;;3.27;82.55;101426.41;5007850;28;20029;-49
2023/03/28 04:31:38;;;;;;;0.70;0.70;;;;;;;3.22;82.48;101423.81;5003441;28;20038;-51
2023/03/28 04:34:19;;;;;;;0.40;0.40;;;;;;;3.20;82.78;101422.50;4993769;28;20422;-53
2023/03/28 04:37:04;;;;;;;0.43;0.43;;;;;;;3.16;82.97;101419.63;5021031;28;20030;-51
2023/03/28 04:39:36;;;;;;;0.65;0.65;;;;;;;3.20;83.03;101431.28;5027607;28;20038;-49
2023/03/28 04:42:24;;;;;;;0.40;0.40;;;;;;;3.15;83.20;101436.69;5011243;28;20049;-52
2023/03/28 04:45:17;;;;;;;;;;;;;;;3.11;83.00;101432.22;4993311;28;20125;-49
2023/03/28 04:47:43;;;;;;;0.30;0.30;;;;;;;3.08;82.96;101433.56;4996630;28;19918;-51
2023/03/28 04:50:15;;;;;;;0.20;0.20;;;;;;;3.15;83.12;101439.34;5005096;28;20018;-48
2023/03/28 04:52:41;;;;;;;0.40;0.40;;;;;;;3.11;82.98;101433.00;5004985;28;20034;-55
2023/03/28 04:55:06;;;;;;;0.68;0.30;;;;;;;3.04;83.24;101435.22;4995617;28;20477;-51
2023/03/28 04:57:33;;;;;;;0.30;0.30;;;;;;;2.94;83.50;101443.34;5009304;28;20042;-52
2023/03/28 05:00:08;;;;;;;0.40;0.40;;;;;;;2.89;83.94;101440.72;5017154;28;20030;-50
2023/03/28 05:03:12;;;;;;;0.30;0.30;;;;;;;2.88;84.00;101441.81;4987391;28;20038;-54
2023/03/28 05:05:47;;;;;;;0.25;0.25;;;;;;;2.89;84.11;101447.91;5001833;28;20038;-49
2023/03/28 05:08:15;;;;;;;0.90;0.50;;;;;;;2.82;84.58;101456.25;5003784;28;20045;-47
2023/03/28 05:10:42;;;;;;;0.47;0.47;;;;;;;2.67;84.80;101457.19;4995842;28;20029;-55
2023/03/28 05:13:09;;;;;;;0.22;0.22;;;;;;;2.71;84.29;101455.53;5002266;28;20097;-54
2023/03/28 05:15:42;;;;;;;0.50;0.50;;;;;;;2.68;85.11;101468.59;4993728;28;20407;-49
2023/03/28 05:18:30;;;;;;;0.40;0.40;;;;;;;2.69;85.64;101462.22;5009356;28;20460;-55
2023/03/28 05:20:55;;;;;;;1.55;0.43;;;;;;;2.79;85.53;101475.41;5004757;28;20034;-55
2023/03/28 05:23:21;;;;;;;0.20;0.20;;;;;;;2.89;85.36;101477.94;4989499;28;20046;-53
2023/03/28 05:25:51;;;;;;;0.45;0.45;;;;;;;2.89;85.15;101482.47;5003219;28;20125;-48
2023/03/28 05:28:17;;;;;;;0.40;0.40;;;;;;;3.01;85.03;101491.66;5004091;28;20037;-54
2023/03/28 05:31:10;;;;;;;0.50;0.50;;;;;;;3.02;85.34;101501.19;4998711;28;20026;-52
2023/03/28 05:33:36;;;;;;;0.40;0.40;;;;;;;3.11;85.41;101502.19;4955054;28;20046;-52
2023/03/28 05:36:03;;;;;;;0.50;0.40;;;;;;;3.13;85.68;101496.56;4934511;28;20051;-50
2023/03/28 05:38:32;;;;;;;0.52;0.52;;;;;;;3.24;85.87;101506.81;4941425;28;20148;-46
2023/03/28 05:41:03;;;;;;;0.20;0.20;;;;;;;3.46;85.19;101512.41;4942379;28;20038;-51
2023/03/28 05:43:29;;;;;;;0.50;0.50;;;;;;;3.50;85.23;101517.94;4956739;28;20043;-50
2023/03/28 05:45:55;;;;;;;0.63;0.63;;;;;;;3.56;85.49;101517.56;4940027;28;20051;-56
2023/03/28 05:48:26;;;;;;;;;;;;;;;3.62;85.71;101518.28;4954430;28;20038;-50
2023/03/28 05:50:51;;;;;;;0.43;0.43;;;;;;;3.60;85.77;101505.28;4947446;28;19921;-53
2023/03/28 05:53:17;;;;;;;0.63;0.40;;;;;;;3.59;85.95;101514.34;4949952;28;20541;-52
2023/03/28 05:55:43;;;;;;;0.50;0.50;;;;;;;3.66;86.05;101512.13;4953159;28;20031;-50
2023/03/28 05:58:09;;;;;;;0.60;0.60;;;;;;;3.42;86.84;101510.59;4951063;28;20062;-51
2023/03/28 06:00:40;;;;;;;0.32;0.32;;;;;;;3.53;86.95;101520.03;4950760;28;20113;-51
2023/03/28 06:03:06;;;;;;;0.50;0.50;;;;;;;3.62;87.05;101519.09;4946517;28;20051;-50
2023/03/28 06:05:36;;;;;;;0.60;0.60;;;;;;;3.65;86.88;101523.88;4952386;28;20031;-51
2023/03/28 06:08:08;;;;;;;;;;;;;;;3.71;86.57;101523.78;4953347;28;20026;-49
2023/03/28 06:10:35;;;;;;;0.57;0.57;;;;;;;3.71;86.60;101521.13;4977251;28;19917;-51
2023/03/28 06:13:13;;;;;;;0.45;0.45;;;;;;;3.83;86.66;101519.63;5003947;28;20037;-54
2023/03/28 06:15:40;;;;;;;0.32;0.32;;;;;;;3.89;86.12;101517.69;5025103;28;20675;-47
2023/03/28 06:18:06;;;;;;;0.65;0.65;;;;;;;3.88;86.31;101518.75;5008702;28;20029;-54
2023/03/28 06:20:32;;;;;;;1.17;0.85;;;;;;;3.94;86.24;101522.94;4990968;28;20034;-49
2023/03/28 06:22:57;;;;;;;0.50;0.50;;;;;;;3.89;86.76;101523.00;5005731;28;20053;-53
2023/03/28 06:25:23;;;;;;;0.50;0.50;;;;;;;3.75;86.99;101525.59;4989771;28;20093;-48
2023/03/28 06:27:48;;;;;;;0.40;0.40;;;;;;;3.86;87.10;101523.56;5008058;28;20117;-52
2023/03/28 06:30:14;;;;;;;1.02;0.52;;;;;;;3.91;86.46;101526.94;5003740;28;20056;-50
2023/03/28 06:32:47;;;;;;;0.40;0.40;;;;;;;3.86;86.92;101526.22;4993983;28;20105;-51
2023/03/28 06:35:14;;;;;;;3.00;0.40;;;;;;;3.86;86.92;101524.38;5005365;28;20033;-50
2023/03/28 06:37:39;;;;;;;0.85;0.80;;;;;;;3.84;87.01;101525.72;5009249;28;20060;-53
2023/03/28 06:40:07;;;;;;;0.65;0.65;;;;;;;4.04;86.86;101530.78;5004962;28;20103;-48
2023/03/28 06:42:32;;;;;;;1.85;0.43;;;;;;;4.14;86.36;101530.63;5021363;28;20034;-52
2023/03/28 06:45:18;;;;;;;0.47;0.47;;;;;;;4.26;86.52;101536.28;4991637;28;20038;-51
2023/03/28 06:47:55;;;;;;;0.35;0.35;;;;;;;4.38;86.19;101531.31;4989043;28;20026;-50
2023/03/28 06:50:33;;;;;;;0.88;0.68;;;;;;;4.52;86.00;101538.28;5004122;28;20671;-54
2023/03/28 06:53:07;;;;;;;0.40;0.40;;;;;;;4.77;86.16;101544.25;5011947;28;20048;-52
2023/03/28 06:55:34;;;;;;;0.47;0.47;;;;;;;4.85;86.17;101551.56;5012337;28;20033;-51
2023/03/28 06:57:59;;;;;;;0.88;0.43;;;;;;;5.02;85.52;101549.94;5010667;28;20072;-49
2023/03/28 07:00:32;;;;;;;0.60;0.60;;;;;;;5.26;85.50;101557.75;5012204;28;20496;-49
2023/03/28 07:03:23;;;;;;;0.93;0.88;;;;;;;5.51;84.33;101559.94;5018161;28;20042;-49
2023/03/28 07:05:49;;;;;;;0.75;0.73;;;;;;;5.69;84.23;101558.22;5015536;28;20559;-49
2023/03/28 07:08:15;;;;;;;0.50;0.50;;;;;;;5.79;84.38;101569.47;5015602;28;20197;-49
2023/03/28 07:10:41;;;;;;;0.88;0.43;;;;;;;5.90;83.70;101567.41;5021415;28;20630;-50
2023/03/28 07:13:09;;;;;;;0.57;0.57;;;;;;;5.90;82.76;101572.75;5014029;28;20060;-49
2023/03/28 07:15:43;;;;;;;0.40;0.40;;;;;;;6.05;82.52;101573.22;5016722;28;20397;-51
2023/03/28 07:18:12;;;;;;;0.43;0.43;;;;;;;6.29;82.71;101583.66;5017349;28;20044;-52
2023/03/28 07:20:40;;;;;;;0.63;0.50;;;;;;;6.54;81.15;101582.25;5013609;28;20037;-53
2023/03/28 07:23:06;;;;;;;0.50;0.50;;;;;;;6.64;81.26;101590.03;5016519;28;20045;-52
2023/03/28 07:25:33;;;;;;;0.95;0.60;;;;;;;6.92;79.64;101589.59;5016671;28;20041;-52
2023/03/28 07:27:59;;;;;;;0.30;0.30;;;;;;;7.03;79.58;101593.56;5016906;28;20037;-50
2023/03/28 07:30:25;;;;;;;1.02;0.70;;;;;;;7.15;79.37;101604.50;5014115;28;20040;-52
2023/03/28 07:32:52;;;;;;;2.50;1.17;;;;;;;7.32;78.32;101597.66;5012210;28;20101;-55
2023/03/28 07:35:19;;;;;;;0.32;0.32;;;;;;;7.38;78.77;101607.91;5015005;28;20044;-54
2023/03/28 07:37:47;;;;;;;0.80;0.80;;;;;;;7.51;78.80;101607.00;5015384;28;20071;-49
2023/03/28 07:40:44;;;;;;;0.52;0.50;;;;;;;7.63;79.04;101617.13;5002133;28;20042;-52
2023/03/28 07:43:10;;;;;;;0.22;0.22;;;;;;;7.81;79.19;101616.09;5015834;28;20176;-49
2023/03/28 07:45:36;;;;;;;1.67;0.95;;;;;;;8.05;79.16;101611.88;5012410;28;20469;-52
2023/03/28 07:48:03;;;;;;;0.70;0.47;;;;;;;8.37;78.26;101616.03;5014502;28;20556;-54
2023/03/28 07:50:29;;;;;;;0.65;0.65;;;;;;;8.60;76.86;101613.97;5011300;28;20037;-50
2023/03/28 07:52:58;;;;;;;0.45;0.45;;;;;;;8.73;76.84;101619.16;5014010;28;20053;-48
2023/03/28 07:55:47;;;;;;;0.28;0.25;;;;;;;8.92;76.17;101624.97;5031193;28;20063;-51
2023/03/28 07:58:12;;;;;;;0.98;0.55;;;;;;;9.04;75.98;101627.00;4952235;29;20039;-50
2023/03/28 08:00:41;;;;;;;1.42;0.35;;;;;;;9.38;74.97;101634.97;4936168;29;20039;-48
2023/03/28 08:03:33;;;;;;;0.50;0.28;;;;;;;9.41;73.99;101625.47;4951543;29;20447;-51
2023/03/28 08:06:01;;;;;;;0.32;0.32;;;;;;;9.45;72.17;101632.56;4954971;28;20127;-49
2023/03/28 08:08:28;;;;;;;0.35;0.30;;;;;;;9.40;71.94;101634.66;4951067;29;20641;-50
2023/03/28 08:11:12;;;;;;;0.20;0.20;;;;;;;9.30;72.58;101629.63;4951569;28;20638;-53
2023/03/28 08:13:38;;;;;;;0.47;0.43;;;;;;;9.61;72.04;101628.22;4952724;28;20126;-48
2023/03/28 08:16:14;;;;;;;0.30;0.30;;;;;;;9.75;71.92;101633.38;4951366;28;20570;-49
2023/03/28 08:18:40;;;;;;;0.52;0.52;;;;;;;9.90;69.96;101638.19;4952476;29;20155;-50
2023/03/28 08:21:06;;;;;;;7.22;0.30;;;;;;;10.21;69.50;101635.97;4948520;28;20035;-52
2023/03/28 08:23:32;;;;;;;6.13;0.30;;;;;;;10.47;70.01;101635.78;4952506;29;20035;-55
2023/03/28 08:26:13;;;;;;;0.30;0.30;;;;;;;10.39;67.30;101639.34;4935948;29;20039;-51
2023/03/28 08:28:43;;;;;;;0.20;0.20;;;;;;;10.08;67.04;101639.69;4952447;29;20145;-53
2023/03/28 08:31:15;;;;;;;0.10;0.10;;;;;;;9.96;65.11;101643.09;4951263;29;20063;-57
2023/03/28 08:33:47;;;;;;;0.25;0.22;;;;;;;9.98;64.85;101632.78;4951559;29;20031;-51
2023/03/28 08:36:14;;;;;;;0.00;0.00;;;;;;;10.28;64.38;101644.31;5006192;28;20045;-48
2023/03/28 08:38:41;;;;;;;0.13;0.13;;;;;;;10.23;61.80;101641.81;5008852;28;20032;-54
2023/03/28 08:41:25;;;;;;;0.10;0.10;;;;;;;10.07;62.06;101645.38;4991389;28;20061;-54
2023/03/28 08:44:15;;;;;;;0.20;0.20;;;;;;;10.13;61.29;101647.59;5009659;28;20037;-52
2023/03/28 08:46:43;;;;;;;0.70;0.28;;;;;;;10.51;62.24;101648.25;5008951;28;20038;-52
2023/03/28 08:49:18;;;;;;;0.20;0.20;;;;;;;10.81;59.55;101643.56;4991203;28;20402;-53
2023/03/28 08:51:59;;;;;;;0.10;0.10;;;;;;;10.85;58.40;101647.97;4991665;28;20038;-54
2023/03/28 08:54:30;;;;;;;0.00;0.00;;;;;;;11.10;57.60;101650.72;4992226;28;20104;-52
2023/03/28 08:56:59;;;;;;;0.20;0.20;;;;;;;11.44;57.19;101658.44;5006575;28;20444;-53
2023/03/28 08:59:32;;;;;;;0.52;0.28;;;;;;;11.68;55.09;101664.66;5011028;28;20026;-57
2023/03/28 09:01:57;;;;;;;0.10;0.10;;;;;;;11.78;52.59;101666.13;5018666;28;20031;-55
2023/03/28 09:04:34;;;;;;;0.25;0.25;;;;;;;11.99;51.74;101668.69;5009567;28;20452;-57
2023/03/28 09:07:25;;;;;;;0.05;0.05;;;;;;;12.27;50.89;101666.88;5010999;28;20048;-57
2023/03/28 09:10:09;;;;;;;0.88;0.10;;;;;;;12.53;50.84;101669.94;5005052;28;20030;-52
2023/03/28 09:12:52;;;;;;;0.10;0.10;;;;;;;12.97;50.86;101668.88;5018250;28;20030;-49
2023/03/28 09:15:28;;;;;;;0.10;0.05;;;;;;;12.80;50.08;101661.06;5011402;28;20080;-52
2023/03/28 09:18:09;;;;;;;2.58;0.05;;;;;;;12.74;49.98;101669.78;5009892;28;20121;-56
2023/03/28 09:20:50;;;;;;;0.20;0.20;;;;;;;12.55;50.79;101663.09;5019899;28;20053;-56
2023/03/28 09:24:10;;;;;;;0.00;0.00;;;;;;;12.71;50.64;101665.84;5026263;28;20427;-54
2023/03/28 09:27:24;;;;;;;5.85;0.20;;;;;;;12.84;48.93;101658.47;5008060;28;20038;-50
2023/03/28 09:29:55;;;;;;;0.10;0.10;;;;;;;12.65;49.27;101665.31;5002268;28;20029;-55
2023/03/28 09:32:31;;;;;;;0.00;0.00;;;;;;;12.73;50.16;101650.06;5011006;28;20034;-50
2023/03/28 09:34:58;;;;;;;0.00;0.00;;;;;;;12.89;48.93;101658.22;5010520;28;20037;-50
2023/03/28 09:37:38;;;;;;;0.25;0.10;;;;;;;12.78;49.19;101662.53;5007164;28;20109;-50
2023/03/28 09:40:21;;;;;;;0.00;0.00;;;;;;;12.68;48.25;101661.91;5008927;28;20041;-49
2023/03/28 09:43:39;;;;;;;0.00;0.00;;;;;;;12.56;48.78;101653.84;5004780;28;20172;-50
2023/03/28 09:46:47;;;;;;;0.03;0.03;;;;;;;12.81;48.75;101662.66;4990240;28;20610;-48
2023/03/28 09:49:18;;;;;;;0.73;0.13;;;;;;;13.09;49.88;101646.41;4991668;28;20060;-50
2023/03/28 09:51:51;;;;;;;0.17;0.13;;;;;;;13.44;49.00;101650.81;4999040;28;20044;-52
2023/03/28 09:54:34;;;;;;;0.30;0.03;;;;;;;13.84;46.50;101652.56;5004199;28;20045;-49
2023/03/28 09:57:03;;;;;;;0.88;0.85;;;;;;;13.79;46.29;101667.13;5006167;28;20038;-50
2023/03/28 09:59:57;;;;;;;0.00;0.00;;;;;;;13.37;46.61;101661.47;5009033;28;20026;-48
2023/03/28 10:02:32;;;;;;;0.10;0.10;;;;;;;13.13;46.72;101667.03;5006704;28;20389;-50
2023/03/28 10:05:03;;;;;;;0.28;0.15;;;;;;;12.92;46.65;101671.03;5008516;28;20160;-51
2023/03/28 10:07:44;;;;;;;0.05;0.05;;;;;;;12.51;48.01;101674.91;5008934;28;20072;-51
2023/03/28 10:10:32;;;;;;;0.00;0.00;;;;;;;12.12;48.75;101676.44;5003858;28;20041;-48
2023/03/28 10:13:10;;;;;;;1.08;0.30;;;;;;;12.13;50.71;101675.34;4992792;28;20041;-52
2023/03/28 10:15:45;;;;;;;0.10;0.10;;;;;;;12.12;50.95;101672.94;5022690;28;20034;-47
2023/03/28 10:18:30;;;;;;;0.20;0.10;;;;;;;11.96;52.58;101664.78;5010757;28;20053;-50
2023/03/28 10:21:31;;;;;;;0.90;0.63;;;;;;;11.99;53.07;101682.19;4976909;28;20046;-49
2023/03/28 10:24:06;;;;;;;0.55;0.32;;;;;;;11.77;53.06;101661.84;5002934;28;20022;-49
2023/03/28 10:26:32;;;;;;;0.32;0.20;;;;;;;11.72;53.33;101664.78;5023916;28;20032;-51
2023/03/28 10:29:04;;;;;;;0.10;0.10;;;;;;;11.74;52.40;101667.94;5000727;28;20026;-48
2023/03/28 10:31:31;;;;;;;0.60;0.43;;;;;;;11.48;52.62;101662.00;5009262;28;20041;-47
2023/03/28 10:34:29;;;;;;;0.50;0.20;;;;;;;11.52;52.27;101669.13;5012229;28;20176;-50
2023/03/28 10:37:27;;;;;;;0.10;0.10;;;;;;;11.53;52.71;101667.22;4996260;28;20130;-51
2023/03/28 10:40:17;;;;;;;0.30;0.30;;;;;;;11.47;52.78;101668.53;5010184;28;20040;-51
2023/03/28 10:43:13;;;;;;;0.10;0.10;;;;;;;11.64;53.41;101679.13;4979892;28;20521;-51
2023/03/28 10:46:19;;;;;;;0.20;0.20;;;;;;;11.58;53.70;101683.16;4976895;28;20042;-51
2023/03/28 10:49:16;;;;;;;0.52;0.35;;;;;;;11.37;53.70;101675.16;4976936;28;20189;-51
2023/03/28 10:51:47;;;;;;;0.10;0.10;;;;;;;11.41;53.39;101691.47;4972287;28;20063;-48
2023/03/28 10:54:31;;;;;;;0.20;0.20;;;;;;;11.15;53.98;101680.94;5018456;28;20033;-52
2023/03/28 10:57:09;;;;;;;0.52;0.30;;;;;;;10.65;55.32;101680.28;5002731;28;20119;-54
2023/03/28 11:00:00;;;;;;;0.20;0.20;;;;;;;10.62;55.29;101687.16;5013571;28;20473;-50
2023/03/28 11:02:30;;;;;;;0.20;0.20;;;;;;;10.64;55.58;101678.72;5004021;28;20146;-50
2023/03/28 11:05:20;;;;;;;0.20;0.20;;;;;;;10.46;56.32;101682.66;5002249;28;20558;-51
2023/03/28 11:07:56;;;;;;;0.28;0.28;;;;;;;10.66;55.54;101677.28;5006805;28;20053;-51
2023/03/28 11:10:55;;;;;;;0.40;0.20;;;;;;;10.73;55.98;101677.53;5004994;28;20117;-51
2023/03/28 11:13:45;;;;;;;2.33;0.55;;;;;;;10.70;55.42;101675.50;5019637;28;20145;-55
2023/03/28 11:16:29;;;;;;;0.40;0.17;;;;;;;10.69;55.54;101678.53;4987794;28;20550;-53
2023/03/28 11:19:27;;;;;;;5.88;0.47;;;;;;;10.98;55.23;101677.63;5005740;28;20041;-53
2023/03/28 11:22:32;;;;;;;0.20;0.20;;;;;;;11.13;54.42;101666.25;5018693;28;20033;-48
2023/03/28 11:25:20;;;;;;;0.30;0.30;;;;;;;11.37;54.21;101671.66;5020771;28;20029;-50
2023/03/28 11:28:13;;;;;;;0.40;0.20;;;;;;;11.61;54.66;101672.47;5004370;28;20030;-53
2023/03/28 11:30:48;;;;;;;0.20;0.20;;;;;;;11.75;53.70;101670.28;5016825;28;20030;-48
2023/03/28 11:33:41;;;;;;;0.10;0.10;;;;;;;11.87;53.34;101672.19;5007289;28;20030;-47
2023/03/28 11:36:24;;;;;;;0.20;0.20;;;;;;;11.98;54.33;101669.84;5002817;28;20074;-49
2023/03/28 11:38:57;;;;;;;0.52;0.20;;;;;;;11.98;54.29;101677.94;5005849;28;20025;-48
2023/03/28 11:41:31;;;;;;;0.20;0.20;;;;;;;11.98;53.88;101675.25;5006527;28;20045;-50
2023/03/28 11:44:21;;;;;;;0.10;0.10;;;;;;;11.93;53.39;101662.75;5007693;28;20156;-53
2023/03/28 11:46:58;;;;;;;0.10;0.10;;;;;;;11.84;53.28;101664.00;5006550;28;20116;-49
2023/03/28 11:49:38;;;;;;;0.63;0.35;;;;;;;11.71;53.43;101657.81;5006181;28;20026;-47
2023/03/28 11:52:30;;;;;;;0.15;0.15;;;;;;;11.54;53.77;101666.06;5011543;28;20444;-47
2023/03/28 11:55:11;;;;;;;0.10;0.10;;;;;;;11.58;53.05;101658.88;5011259;28;20088;-51
2023/03/28 11:57:56;;;;;;;0.55;0.47;;;;;;;11.62;53.17;101660.59;5003198;28;20114;-51
2023/03/28 12:00:36;;;;;;;0.17;0.10;;;;;;;11.43;51.76;101673.03;5008569;28;20041;-48
2023/03/28 12:03:31;;;;;;;0.00;0.00;;;;;;;11.50;51.89;101654.38;5007495;28;20049;-50
2023/03/28 12:06:06;;;;;;;0.00;0.00;;;;;;;11.53;51.58;101654.53;5010346;28;20057;-49
2023/03/28 12:08:56;;;;;;;0.88;0.25;;;;;;;11.64;51.65;101657.53;5022503;28;20451;-51
2023/03/28 12:11:31;;;;;;;0.20;0.20;;;;;;;11.77;52.72;101653.75;5021883;28;20037;-48